Time;durP1;ratioP1;P1;durP2;ratioP2;P2;SDS_P1;SDS_P2;PMS_P1;PMS_P2;Temp;Humidity;BMP_temperature;BMP_pressure;BME280_temperature;BME280_humidity;BME280_pressure;Samples;Min_cycle;Max_cycle;Signal;HPM_P1;HPM_P2
2022/09/23 00:01:45;;;;;;;20.60;14.80;;;7.60;99.90;;;;;;4959781;28;20207;-85
2022/09/23 00:04:14;;;;;;;23.30;16.88;;;7.50;99.90;;;;;;4963936;29;20211;-84
2022/09/23 00:06:44;;;;;;;24.80;17.25;;;7.60;99.90;;;;;;4959968;29;20211;-85
2022/09/23 00:09:12;;;;;;;21.50;17.20;;;7.60;99.90;;;;;;4956142;28;20417;-87
2022/09/23 00:11:42;;;;;;;21.33;16.42;;;7.60;99.90;;;;;;4962683;28;20387;-85
2022/09/23 00:14:11;;;;;;;24.20;17.25;;;7.60;99.90;;;;;;4964128;29;20768;-84
2022/09/23 00:16:38;;;;;;;22.83;17.73;;;7.60;99.90;;;;;;4948436;28;20225;-84
2022/09/23 00:19:07;;;;;;;28.70;19.13;;;7.60;99.90;;;;;;4963133;28;20328;-85
2022/09/23 00:21:35;;;;;;;20.77;16.33;;;7.60;99.90;;;;;;4953992;29;20214;-86
2022/09/23 00:24:04;;;;;;;24.20;16.35;;;7.50;99.90;;;;;;4961756;29;20422;-84
2022/09/23 00:26:31;;;;;;;28.27;17.20;;;7.50;99.90;;;;;;4960208;28;20402;-85
2022/09/23 00:28:57;;;;;;;28.20;19.63;;;7.50;99.90;;;;;;4954554;29;20215;-85
2022/09/23 00:31:26;;;;;;;24.27;17.40;;;7.50;99.90;;;;;;4962400;28;20301;-85
2022/09/23 00:33:59;;;;;;;23.25;18.55;;;7.40;99.90;;;;;;4957856;28;20223;-84
2022/09/23 00:36:28;;;;;;;22.63;16.80;;;7.50;99.90;;;;;;4964262;28;20230;-83
2022/09/23 00:38:56;;;;;;;27.23;18.67;;;7.50;99.90;;;;;;4975819;28;20211;-85
2022/09/23 00:41:24;;;;;;;23.08;17.80;;;7.50;99.90;;;;;;4974656;28;20297;-86
2022/09/23 00:43:56;;;;;;;23.75;18.00;;;7.40;99.90;;;;;;4965060;28;20270;-84
2022/09/23 00:46:35;;;;;;;28.42;19.65;;;7.40;99.90;;;;;;4962105;28;20561;-84
2022/09/23 00:49:27;;;;;;;24.50;18.33;;;7.20;99.90;;;;;;4965673;28;20230;-86
2022/09/23 00:52:13;;;;;;;29.02;17.55;;;7.30;99.90;;;;;;4956134;29;20566;-86
2022/09/23 00:54:41;;;;;;;23.83;17.92;;;7.30;99.90;;;;;;4963224;28;20254;-86
2022/09/23 00:57:10;;;;;;;28.13;18.92;;;7.30;99.90;;;;;;4967452;28;20289;-84
2022/09/23 00:59:37;;;;;;;27.33;20.23;;;7.30;99.90;;;;;;4960857;29;20785;-87
2022/09/23 01:02:08;;;;;;;26.38;19.15;;;7.30;99.90;;;;;;4971931;28;20261;-87
2022/09/23 01:04:38;;;;;;;24.08;18.42;;;7.30;99.90;;;;;;4964615;28;20215;-85
2022/09/23 01:07:04;;;;;;;24.45;18.20;;;7.20;99.90;;;;;;4966635;28;20212;-86
2022/09/23 01:09:35;;;;;;;24.90;19.10;;;7.20;99.90;;;;;;4962492;29;20242;-86
2022/09/23 01:12:22;;;;;;;26.48;19.52;;;7.20;99.90;;;;;;4961482;28;20210;-86
2022/09/23 01:15:35;;;;;;;25.40;19.10;;;7.20;99.90;;;;;;4972473;28;20500;-84
2022/09/23 01:18:33;;;;;;;23.80;18.75;;;7.20;99.90;;;;;;4984641;28;20218;-85
2022/09/23 01:21:24;;;;;;;23.30;16.92;;;7.10;99.90;;;;;;4979961;28;20195;-85
2022/09/23 01:24:15;;;;;;;26.20;19.67;;;7.10;99.90;;;;;;4966296;28;20375;-87
2022/09/23 01:27:09;;;;;;;27.15;19.67;;;7.00;99.90;;;;;;4969738;28;20831;-87
2022/09/23 01:30:15;;;;;;;31.95;20.92;;;6.80;99.90;;;;;;4957713;28;20238;-87
2022/09/23 01:33:04;;;;;;;27.63;18.40;;;6.90;99.90;;;;;;4961516;28;20217;-87
2022/09/23 01:36:01;;;;;;;35.33;18.88;;;6.90;99.90;;;;;;4967964;28;20486;-87
2022/09/23 01:38:53;;;;;;;28.00;21.02;;;6.90;99.90;;;;;;4962180;28;20282;-87
2022/09/23 01:41:37;;;;;;;28.10;19.05;;;6.90;99.90;;;;;;4963162;29;20221;-86
2022/09/23 01:44:16;;;;;;;28.95;21.10;;;6.90;99.90;;;;;;4974059;28;20186;-87
2022/09/23 01:46:55;;;;;;;28.02;18.98;;;6.90;99.90;;;;;;4983970;28;20198;-85
2022/09/23 01:49:41;;;;;;;31.55;21.00;;;6.90;99.90;;;;;;4983537;28;20198;-85
2022/09/23 01:52:43;;;;;;;27.83;20.73;;;6.80;99.90;;;;;;4965218;28;20270;-87
2022/09/23 01:55:34;;;;;;;26.73;18.77;;;6.80;99.90;;;;;;4959387;29;20195;-86
2022/09/23 01:58:24;;;;;;;29.25;20.30;;;6.90;99.90;;;;;;4975293;28;20242;-84
2022/09/23 02:01:00;;;;;;;29.55;21.77;;;6.90;99.90;;;;;;4960477;29;20211;-87
2022/09/23 02:03:38;;;;;;;30.27;21.25;;;6.90;99.90;;;;;;4952471;29;20198;-87
2022/09/23 02:06:24;;;;;;;30.75;21.85;;;6.90;99.90;;;;;;4958206;28;20554;-87
2022/09/23 02:09:06;;;;;;;28.58;21.98;;;6.80;99.90;;;;;;4951439;28;20203;-86
2022/09/23 02:11:35;;;;;;;32.08;23.25;;;6.80;99.90;;;;;;4960901;29;20458;-85
2022/09/23 02:14:14;;;;;;;31.88;21.63;;;6.70;99.90;;;;;;4962419;28;20273;-85
2022/09/23 02:16:49;;;;;;;29.10;19.20;;;6.70;99.90;;;;;;4961198;28;20770;-86
2022/09/23 02:19:29;;;;;;;31.67;20.58;;;6.70;99.90;;;;;;4956743;28;20207;-88
2022/09/23 02:22:11;;;;;;;38.08;21.73;;;6.70;99.90;;;;;;4955855;28;20202;-85
2022/09/23 02:24:43;;;;;;;30.50;22.40;;;6.70;99.90;;;;;;4961640;28;20217;-85
2022/09/23 02:27:33;;;;;;;29.92;21.27;;;6.70;99.90;;;;;;4965573;28;20268;-85
2022/09/23 02:30:11;;;;;;;30.33;19.90;;;6.60;99.90;;;;;;4967223;28;20244;-87
2022/09/23 02:32:57;;;;;;;25.90;21.13;;;6.60;99.90;;;;;;4960832;28;20304;-87
2022/09/23 02:35:40;;;;;;;27.85;20.75;;;6.60;99.90;;;;;;4971081;28;20433;-86
2022/09/23 02:38:38;;;;;;;27.52;19.60;;;6.60;99.90;;;;;;4970424;28;20305;-86
2022/09/23 02:41:31;;;;;;;29.40;21.55;;;6.60;99.90;;;;;;4965610;29;20247;-86
2022/09/23 02:44:06;;;;;;;30.65;23.50;;;6.60;99.90;;;;;;4964693;28;20215;-88
2022/09/23 02:46:35;;;;;;;27.83;20.60;;;6.60;99.90;;;;;;4963797;28;20214;-86
2022/09/23 02:49:24;;;;;;;30.95;22.35;;;6.60;99.90;;;;;;4968727;28;20290;-86
2022/09/23 02:51:53;;;;;;;35.40;22.33;;;6.50;99.90;;;;;;4963380;28;20256;-86
2022/09/23 02:54:28;;;;;;;31.38;22.20;;;6.50;99.90;;;;;;4975029;28;20206;-87
2022/09/23 02:56:59;;;;;;;26.77;20.38;;;6.50;99.90;;;;;;4965367;28;20524;-88
2022/09/23 02:59:30;;;;;;;28.98;22.30;;;6.50;99.90;;;;;;4976873;28;20199;-86
2022/09/23 03:02:12;;;;;;;31.73;21.88;;;6.50;99.90;;;;;;4985514;28;20344;-85
2022/09/23 03:05:10;;;;;;;32.35;22.00;;;6.50;99.90;;;;;;4974688;28;20441;-87
2022/09/23 03:08:07;;;;;;;28.15;22.77;;;6.50;99.90;;;;;;4956243;29;20234;-84
2022/09/23 03:10:45;;;;;;;32.03;21.77;;;6.40;99.90;;;;;;4970676;28;20254;-83
2022/09/23 03:13:50;;;;;;;34.42;23.15;;;6.40;99.90;;;;;;4977059;28;20210;-84
2022/09/23 03:16:35;;;;;;;30.17;22.75;;;6.30;99.90;;;;;;4954421;28;20217;-84
2022/09/23 03:19:22;;;;;;;30.67;22.55;;;6.20;99.90;;;;;;4971202;28;20286;-85
2022/09/23 03:22:02;;;;;;;34.80;23.55;;;6.20;99.90;;;;;;4958795;28;20206;-86
2022/09/23 03:24:33;;;;;;;31.73;23.02;;;6.30;99.90;;;;;;4966001;28;20530;-84
2022/09/23 03:27:04;;;;;;;29.77;21.88;;;6.30;99.90;;;;;;4977152;28;20205;-87
2022/09/23 03:29:36;;;;;;;29.48;22.55;;;6.50;99.90;;;;;;4962586;28;20246;-83
2022/09/23 03:32:07;;;;;;;30.42;20.05;;;6.20;99.90;;;;;;4962162;29;20206;-85
2022/09/23 03:34:36;;;;;;;27.63;22.55;;;6.20;99.90;;;;;;4954170;28;20248;-84
2022/09/23 03:37:16;;;;;;;31.55;21.65;;;6.30;99.90;;;;;;4970997;28;20203;-85
2022/09/23 03:39:49;;;;;;;30.63;22.77;;;6.30;99.90;;;;;;4994840;28;20205;-85
2022/09/23 03:42:31;;;;;;;27.90;21.10;;;6.30;99.90;;;;;;4999724;28;20213;-85
2022/09/23 03:45:03;;;;;;;26.42;21.27;;;6.30;99.90;;;;;;4997123;28;20196;-87
2022/09/23 03:47:32;;;;;;;33.22;22.48;;;6.20;99.90;;;;;;4987285;28;20426;-86
2022/09/23 03:49:58;;;;;;;25.63;20.13;;;6.30;99.90;;;;;;4987671;28;20249;-86
2022/09/23 03:52:26;;;;;;;34.38;23.15;;;6.20;99.90;;;;;;4977125;28;20214;-86
2022/09/23 03:58:20;;;;;;;36.70;22.52;;;6.20;99.90;;;;;;4986278;28;20235;-84
2022/09/23 04:01:22;;;;;;;32.83;24.27;;;6.20;99.90;;;;;;4975541;29;20397;-86
2022/09/23 04:03:51;;;;;;;36.70;21.38;;;6.10;99.90;;;;;;4984590;28;20201;-87
2022/09/23 04:06:21;;;;;;;30.20;21.10;;;6.20;99.90;;;;;;4995320;28;20245;-84
2022/09/23 04:08:48;;;;;;;30.05;22.55;;;6.20;99.90;;;;;;4977802;28;20290;-86
2022/09/23 04:11:15;;;;;;;31.55;22.83;;;6.20;99.90;;;;;;4989377;28;20206;-86
2022/09/23 04:13:44;;;;;;;33.08;23.30;;;6.10;99.90;;;;;;4979801;28;20253;-87
2022/09/23 04:16:12;;;;;;;33.05;23.05;;;6.10;99.90;;;;;;4982369;28;20179;-89
2022/09/23 04:18:43;;;;;;;33.30;22.88;;;6.00;99.90;;;;;;4977703;28;20222;-86
2022/09/23 04:21:25;;;;;;;36.63;23.65;;;6.00;99.90;;;;;;4976412;28;20190;-85
2022/09/23 04:23:53;;;;;;;40.80;25.58;;;6.00;99.90;;;;;;4978769;28;20246;-87
2022/09/23 04:26:21;;;;;;;37.42;26.83;;;6.00;99.90;;;;;;4977739;28;20219;-88
2022/09/23 04:28:50;;;;;;;44.13;26.88;;;6.00;99.90;;;;;;4974062;28;20282;-88
2022/09/23 04:31:24;;;;;;;32.08;25.30;;;6.10;99.90;;;;;;4978432;28;20254;-89
2022/09/23 04:33:55;;;;;;;36.53;26.48;;;6.10;99.90;;;;;;4973047;28;20216;-85
2022/09/23 04:36:23;;;;;;;41.38;28.20;;;6.20;99.90;;;;;;4965638;29;20220;-87
2022/09/23 04:38:50;;;;;;;33.40;25.15;;;6.10;99.90;;;;;;4965978;28;20493;-86
2022/09/23 04:41:18;;;;;;;36.85;26.73;;;6.10;99.90;;;;;;4972738;28;20213;-86
2022/09/23 04:43:47;;;;;;;34.15;25.42;;;6.10;99.90;;;;;;4973190;28;20214;-85
2022/09/23 04:46:17;;;;;;;36.08;26.88;;;6.10;99.90;;;;;;4974725;29;20222;-86
2022/09/23 04:48:46;;;;;;;39.00;27.70;;;6.10;99.90;;;;;;4970241;28;20265;-85
2022/09/23 04:51:18;;;;;;;41.75;27.65;;;6.10;99.90;;;;;;5568750;23;20249;-87
2022/09/23 04:53:47;;;;;;;40.42;26.40;;;6.10;99.90;;;;;;4981669;28;20195;-86
2022/09/23 04:56:18;;;;;;;42.22;26.67;;;6.10;99.90;;;;;;5001665;28;20217;-84
2022/09/23 04:58:46;;;;;;;40.58;28.50;;;6.20;99.90;;;;;;4998131;28;20204;-84
2022/09/23 05:01:28;;;;;;;39.55;28.70;;;6.20;99.90;;;;;;4998793;28;20181;-87
2022/09/23 05:22:43;;;;;;;35.67;27.17;;;6.70;99.90;;;;;;6125502;22;20460;-86
2022/09/23 05:25:10;;;;;;;41.05;30.00;;;6.80;99.90;;;;;;4995659;28;20218;-86
2022/09/23 05:27:38;;;;;;;47.03;33.92;;;6.70;99.90;;;;;;4996911;28;20194;-83
2022/09/23 05:30:10;;;;;;;46.47;34.10;;;6.80;99.90;;;;;;4983938;28;20221;-86
2022/09/23 05:32:38;;;;;;;50.00;34.22;;;7.00;99.90;;;;;;4975981;28;20253;-88
2022/09/23 05:35:06;;;;;;;48.85;33.08;;;7.30;99.90;;;;;;4982721;28;20238;-85
2022/09/23 05:37:34;;;;;;;51.72;34.15;;;7.50;99.90;;;;;;4983682;28;20277;-84
2022/09/23 05:40:01;;;;;;;46.75;33.08;;;7.70;99.90;;;;;;4964305;28;20202;-82
2022/09/23 05:42:29;;;;;;;42.15;29.17;;;7.80;99.90;;;;;;4980053;28;20218;-82
2022/09/23 05:44:56;;;;;;;34.83;25.45;;;8.20;99.90;;;;;;4979243;28;20233;-84
2022/09/23 05:47:24;;;;;;;25.45;17.88;;;8.60;99.90;;;;;;4988116;28;20261;-81
2022/09/23 05:49:54;;;;;;;22.75;16.15;;;8.70;99.90;;;;;;4981091;28;20518;-81
2022/09/23 05:52:26;;;;;;;31.75;16.92;;;9.10;99.90;;;;;;4990106;28;20203;-82
2022/09/23 05:54:54;;;;;;;17.58;13.40;;;9.40;99.90;;;;;;4985888;28;20215;-81
2022/09/23 05:57:23;;;;;;;15.55;12.70;;;9.80;99.90;;;;;;4981581;28;20233;-82
2022/09/23 05:59:50;;;;;;;18.73;12.70;;;10.30;99.90;;;;;;4969697;28;20234;-82
2022/09/23 06:02:18;;;;;;;13.40;10.70;;;11.60;99.90;;;;;;4986016;28;20241;-80
2022/09/23 06:04:45;;;;;;;17.80;13.70;;;11.80;99.90;;;;;;4993032;28;20228;-81
2022/09/23 06:07:13;;;;;;;14.15;10.20;;;11.50;99.90;;;;;;4981082;28;20233;-82
2022/09/23 06:09:41;;;;;;;14.48;10.60;;;11.30;99.90;;;;;;4996500;28;20218;-81
2022/09/23 06:12:12;;;;;;;13.73;9.85;;;11.20;99.90;;;;;;4998084;28;20189;-82
2022/09/23 06:14:41;;;;;;;20.30;11.13;;;11.00;99.90;;;;;;5001313;28;20228;-80
2022/09/23 06:17:08;;;;;;;13.18;10.35;;;10.70;99.90;;;;;;5002340;28;20190;-82
2022/09/23 06:19:36;;;;;;;14.13;10.82;;;10.80;99.90;;;;;;4986714;28;20206;-81
2022/09/23 06:22:03;;;;;;;17.33;10.55;;;11.00;99.90;;;;;;4999848;28;20186;-81
2022/09/23 06:24:31;;;;;;;13.90;10.60;;;11.20;99.90;;;;;;5012515;28;20276;-81
2022/09/23 06:26:59;;;;;;;13.68;11.25;;;11.10;99.90;;;;;;4997802;28;20248;-82
2022/09/23 06:29:28;;;;;;;10.30;8.40;;;11.00;99.90;;;;;;4995013;28;20210;-82
2022/09/23 06:31:58;;;;;;;11.60;9.80;;;11.40;99.90;;;;;;4998836;28;20256;-83
2022/09/23 06:34:27;;;;;;;14.70;9.75;;;12.00;99.90;;;;;;4994400;28;20273;-83
2022/09/23 06:36:56;;;;;;;16.95;9.32;;;12.40;99.90;;;;;;4990857;28;20209;-83
2022/09/23 06:39:25;;;;;;;11.10;9.02;;;13.20;99.90;;;;;;4993316;28;20301;-81
2022/09/23 06:41:52;;;;;;;14.63;8.43;;;13.90;99.90;;;;;;5003985;28;20254;-80
2022/09/23 06:44:19;;;;;;;12.77;9.82;;;14.30;99.90;;;;;;5003506;28;20398;-81
2022/09/23 06:46:47;;;;;;;16.50;8.02;;;14.40;99.90;;;;;;4994453;28;20775;-81
2022/09/23 06:49:14;;;;;;;12.40;7.33;;;15.50;99.90;;;;;;5007364;28;20215;-79
2022/09/23 06:51:41;;;;;;;9.30;7.40;;;17.00;99.90;;;;;;5000311;28;20442;-81
2022/09/23 06:54:09;;;;;;;13.27;7.70;;;19.00;99.90;;;;;;5001709;28;20446;-82
2022/09/23 06:56:37;;;;;;;8.60;7.70;;;21.10;99.90;;;;;;4999589;28;20425;-82
2022/09/23 06:59:08;;;;;;;12.83;8.63;;;22.80;99.90;;;;;;5000634;28;20459;-82
2022/09/23 07:01:35;;;;;;;9.57;7.33;;;24.10;96.30;;;;;;4999321;28;20442;-82
2022/09/23 07:04:03;;;;;;;9.57;7.80;;;23.90;94.60;;;;;;4999367;28;20433;-81
2022/09/23 07:06:30;;;;;;;7.50;6.70;;;24.80;92.00;;;;;;4988540;28;20423;-82
2022/09/23 07:08:59;;;;;;;9.67;7.60;;;26.30;86.30;;;;;;4991615;28;20456;-81
2022/09/23 07:11:26;;;;;;;11.03;8.03;;;26.70;85.20;;;;;;4977839;28;20452;-80
2022/09/23 07:13:54;;;;;;;12.20;7.37;;;27.00;78.60;;;;;;4994417;28;20449;-82
2022/09/23 07:16:21;;;;;;;8.10;6.80;;;27.40;76.60;;;;;;4983075;28;20772;-82
2022/09/23 07:18:48;;;;;;;8.43;7.47;;;28.30;71.50;;;;;;4972124;28;20487;-81
2022/09/23 07:21:17;;;;;;;11.27;7.90;;;28.00;69.10;;;;;;4984550;28;20440;-83
2022/09/23 07:23:48;;;;;;;11.07;7.90;;;27.40;69.90;;;;;;4995422;28;20786;-81
2022/09/23 07:26:17;;;;;;;9.77;7.43;;;28.30;70.10;;;;;;4982045;28;20448;-82
2022/09/23 07:28:45;;;;;;;9.70;6.93;;;28.40;68.10;;;;;;4980685;28;20452;-81
2022/09/23 07:31:15;;;;;;;11.63;9.30;;;29.00;67.80;;;;;;4985066;28;20449;-80
2022/09/23 07:33:59;;;;;;;9.10;8.10;;;29.40;66.50;;;;;;4987795;28;20447;-80
2022/09/23 07:36:30;;;;;;;17.23;9.10;;;30.30;63.20;;;;;;5004553;28;20440;-81
2022/09/23 07:38:59;;;;;;;8.73;7.40;;;30.10;60.90;;;;;;5017471;28;20471;-81
2022/09/23 07:41:27;;;;;;;8.50;6.90;;;29.00;63.50;;;;;;5003389;28;20670;-81
2022/09/23 07:43:57;;;;;;;11.73;8.80;;;29.30;66.50;;;;;;4989389;28;20484;-81
2022/09/23 07:46:28;;;;;;;11.93;8.37;;;29.40;64.30;;;;;;4989192;28;20449;-81
2022/09/23 07:48:56;;;;;;;12.70;7.83;;;30.10;60.80;;;;;;4991309;28;20451;-81
2022/09/23 07:51:26;;;;;;;11.27;8.90;;;30.20;61.00;;;;;;4991284;28;20539;-81
2022/09/23 07:53:59;;;;;;;15.67;8.23;;;30.20;59.30;;;;;;4990964;28;20488;-81
2022/09/23 07:56:28;;;;;;;19.37;8.30;;;29.80;62.00;;;;;;4990731;28;20501;-81
2022/09/23 07:58:59;;;;;;;13.77;8.10;;;29.80;60.00;;;;;;4999449;28;21011;-80
2022/09/23 08:01:41;;;;;;;9.97;8.80;;;30.00;60.00;;;;;;4986799;28;20447;-82
2022/09/23 08:04:17;;;;;;;9.43;8.00;;;30.50;59.10;;;;;;4991448;28;20463;-82
2022/09/23 08:06:50;;;;;;;10.70;8.53;;;30.80;58.30;;;;;;4981203;28;20443;-82
2022/09/23 08:09:22;;;;;;;14.23;8.37;;;31.10;58.60;;;;;;4986128;28;20586;-81
2022/09/23 08:11:50;;;;;;;10.40;9.37;;;31.40;57.60;;;;;;4981162;28;20447;-82
2022/09/23 08:14:17;;;;;;;12.40;9.73;;;31.20;57.40;;;;;;4994072;28;20647;-82
2022/09/23 08:16:45;;;;;;;11.97;6.97;;;31.10;57.00;;;;;;4983198;28;20503;-81
2022/09/23 08:19:13;;;;;;;12.50;7.00;;;30.50;56.80;;;;;;4989742;28;20813;-81
2022/09/23 08:21:41;;;;;;;7.73;7.03;;;30.80;57.50;;;;;;4989514;28;20426;-80
2022/09/23 08:24:16;;;;;;;10.30;7.17;;;31.20;57.40;;;;;;4991350;28;20460;-81
2022/09/23 08:26:44;;;;;;;6.97;5.40;;;30.70;56.70;;;;;;4987431;28;20511;-80
2022/09/23 08:29:16;;;;;;;8.70;6.20;;;30.30;58.30;;;;;;4986308;28;20453;-81
2022/09/23 08:31:43;;;;;;;10.50;6.07;;;31.10;57.70;;;;;;4984484;28;20447;-80
2022/09/23 08:34:10;;;;;;;5.93;5.33;;;31.80;57.10;;;;;;4989601;28;20882;-81
2022/09/23 08:36:38;;;;;;;7.50;6.80;;;31.80;56.70;;;;;;4988161;28;20607;-82
2022/09/23 08:39:05;;;;;;;9.83;5.63;;;31.90;55.90;;;;;;4977871;28;20488;-81
2022/09/23 08:41:51;;;;;;;6.87;5.50;;;31.70;56.30;;;;;;4983284;28;20450;-81
2022/09/23 08:44:40;;;;;;;5.20;4.80;;;31.20;56.70;;;;;;4979910;28;20441;-80
2022/09/23 08:47:33;;;;;;;5.40;4.77;;;31.00;55.80;;;;;;4990725;28;20746;-80
2022/09/23 08:50:17;;;;;;;4.60;4.20;;;31.60;55.50;;;;;;4978682;28;20678;-81
2022/09/23 08:52:55;;;;;;;5.63;4.50;;;31.10;55.50;;;;;;4988541;28;20728;-79
2022/09/23 08:55:33;;;;;;;4.73;4.33;;;30.30;55.20;;;;;;4984087;28;20792;-80
2022/09/23 08:58:37;;;;;;;5.00;4.50;;;30.70;56.10;;;;;;4985004;28;20441;-81
2022/09/23 09:01:33;;;;;;;7.00;4.33;;;31.10;55.00;;;;;;4978177;28;20694;-81
2022/09/23 09:04:10;;;;;;;4.50;3.60;;;31.30;54.60;;;;;;4973554;28;20813;-80
2022/09/23 09:06:47;;;;;;;4.47;3.60;;;31.40;55.60;;;;;;4987083;28;20452;-80
2022/09/23 09:09:43;;;;;;;4.33;3.70;;;31.00;56.90;;;;;;4986471;28;20476;-81
2022/09/23 09:12:16;;;;;;;4.00;3.60;;;30.10;55.60;;;;;;4989223;28;20415;-81
2022/09/23 09:15:00;;;;;;;4.50;3.70;;;29.20;57.00;;;;;;4993327;28;20808;-80
2022/09/23 09:17:47;;;;;;;3.80;3.50;;;25.90;64.00;;;;;;4975446;28;20860;-82
2022/09/23 09:20:16;;;;;;;5.93;2.93;;;25.50;68.30;;;;;;4987798;28;20439;-80
2022/09/23 09:22:48;;;;;;;5.40;2.90;;;25.10;72.20;;;;;;4975318;28;20410;-80
2022/09/23 09:25:37;;;;;;;4.07;3.40;;;24.20;78.00;;;;;;4987985;28;20530;-81
2022/09/23 09:28:29;;;;;;;3.20;2.83;;;22.00;88.90;;;;;;4978614;28;20726;-82
2022/09/23 09:31:01;;;;;;;1.90;1.80;;;21.10;92.60;;;;;;4987408;28;20434;-82
2022/09/23 09:34:08;;;;;;;2.53;1.83;;;20.20;94.40;;;;;;4984101;28;20449;-82
2022/09/23 09:36:50;;;;;;;1.80;1.60;;;19.70;95.70;;;;;;4966603;28;21237;-83
2022/09/23 09:39:18;;;;;;;4.20;3.30;;;19.30;98.10;;;;;;4983009;28;20800;-82
2022/09/23 09:41:51;;;;;;;1.77;1.67;;;19.10;99.90;;;;;;4973629;28;20959;-83
2022/09/23 09:44:23;;;;;;;3.30;2.90;;;18.50;99.90;;;;;;4987095;28;20465;-83
2022/09/23 09:47:27;;;;;;;3.63;3.33;;;18.10;99.90;;;;;;4978080;28;20638;-81
2022/09/23 09:50:02;;;;;;;2.60;2.10;;;18.00;99.90;;;;;;4983820;28;20491;-86
2022/09/23 09:52:30;;;;;;;2.83;1.90;;;17.70;99.90;;;;;;4986656;28;20709;-83
2022/09/23 09:55:12;;;;;;;7.20;2.23;;;17.30;99.90;;;;;;4986516;28;20494;-85
2022/09/23 09:58:00;;;;;;;3.40;1.90;;;16.90;99.90;;;;;;4988144;28;20409;-83
2022/09/23 10:00:41;;;;;;;3.80;1.90;;;16.70;99.90;;;;;;4984197;28;20551;-84
2022/09/23 10:03:32;;;;;;;2.10;1.73;;;16.80;99.90;;;;;;4985988;28;20483;-82
2022/09/23 10:06:11;;;;;;;12.20;3.07;;;16.90;99.90;;;;;;4978552;28;20677;-83
2022/09/23 10:08:38;;;;;;;3.73;1.90;;;17.00;99.90;;;;;;4979664;28;20482;-83
2022/09/23 10:11:17;;;;;;;3.53;2.20;;;17.10;99.90;;;;;;4986576;28;20455;-84
2022/09/23 10:14:19;;;;;;;2.20;1.67;;;17.20;99.90;;;;;;4983076;28;20451;-84
2022/09/23 10:17:04;;;;;;;6.27;2.13;;;17.30;99.90;;;;;;4980789;28;20441;-84
2022/09/23 10:19:36;;;;;;;4.57;2.17;;;17.40;99.90;;;;;;4986237;28;20613;-83
2022/09/23 10:22:08;;;;;;;3.63;1.83;;;17.70;99.90;;;;;;4982770;28;20410;-82
2022/09/23 10:24:35;;;;;;;3.70;2.80;;;17.90;99.90;;;;;;4987612;28;20560;-83
2022/09/23 10:27:30;;;;;;;2.17;1.67;;;18.20;99.90;;;;;;4991855;28;20778;-82
2022/09/23 10:30:02;;;;;;;6.10;3.57;;;17.70;99.90;;;;;;4969030;28;20448;-82
2022/09/23 10:32:38;;;;;;;1.90;1.73;;;17.50;99.90;;;;;;4987356;28;20501;-82
2022/09/23 10:35:07;;;;;;;1.40;1.30;;;17.60;99.90;;;;;;4976833;28;20784;-82
2022/09/23 10:37:48;;;;;;;1.87;1.70;;;18.00;99.90;;;;;;4990626;28;20455;-81
2022/09/23 10:46:46;;;;;;;1.93;1.20;;;18.70;99.90;;;;;;4984319;28;20629;-84
2022/09/23 10:49:37;;;;;;;7.13;2.13;;;18.60;99.90;;;;;;4980325;28;20487;-83
2022/09/23 10:52:35;;;;;;;3.40;2.27;;;18.20;99.90;;;;;;4973556;28;20418;-79
2022/09/23 10:55:07;;;;;;;1.53;1.43;;;17.80;99.90;;;;;;4983602;28;20542;-81
2022/09/23 10:58:12;;;;;;;2.07;1.83;;;17.30;99.90;;;;;;4985472;28;20534;-81
2022/09/23 11:01:12;;;;;;;3.50;1.67;;;16.90;99.90;;;;;;4991536;28;20469;-82
2022/09/23 11:04:03;;;;;;;5.10;2.30;;;16.70;99.90;;;;;;4993421;28;20802;-84
2022/09/23 11:06:45;;;;;;;2.53;2.00;;;17.10;99.90;;;;;;4973289;28;20682;-84
2022/09/23 11:09:26;;;;;;;1.83;1.73;;;17.40;99.90;;;;;;4990554;28;20759;-84
2022/09/23 11:12:15;;;;;;;1.80;1.27;;;17.70;99.90;;;;;;4983996;28;20440;-84
2022/09/23 11:15:17;;;;;;;1.97;1.77;;;17.90;99.90;;;;;;4990569;28;20775;-83
2022/09/23 11:18:01;;;;;;;2.93;1.57;;;17.70;99.90;;;;;;4988489;28;20513;-85
2022/09/23 11:20:46;;;;;;;1.30;1.10;;;17.70;99.90;;;;;;4995457;28;20446;-84
2022/09/23 11:23:38;;;;;;;2.30;1.20;;;17.80;99.90;;;;;;4992576;28;20457;-84
2022/09/23 11:26:26;;;;;;;1.57;1.00;;;17.90;99.90;;;;;;4991967;28;20467;-83
2022/09/23 11:29:47;;;;;;;2.00;1.57;;;17.90;99.90;;;;;;5007778;28;20431;-85
2022/09/23 11:32:30;;;;;;;1.30;1.20;;;18.00;99.90;;;;;;4963513;29;20453;-84
2022/09/23 11:35:15;;;;;;;1.73;1.37;;;17.80;99.90;;;;;;4972717;28;20563;-83
2022/09/23 11:38:14;;;;;;;5.97;2.00;;;17.80;99.90;;;;;;4999156;28;20470;-85
2022/09/23 11:40:44;;;;;;;16.30;1.53;;;17.90;99.90;;;;;;4999112;28;20491;-86
2022/09/23 11:43:23;;;;;;;0.90;0.60;;;18.00;99.90;;;;;;4987872;28;20464;-87
2022/09/23 11:46:52;;;;;;;0.83;0.83;;;18.00;99.90;;;;;;4978772;28;20436;-86
2022/09/23 11:49:58;;;;;;;1.50;1.30;;;18.10;99.90;;;;;;4988921;28;20515;-84
2022/09/23 11:52:30;;;;;;;2.37;0.90;;;18.80;99.90;;;;;;4976062;28;20416;-84
2022/09/23 11:55:16;;;;;;;1.23;0.97;;;18.70;99.90;;;;;;4991587;28;20475;-85
2022/09/23 11:58:04;;;;;;;2.53;1.20;;;18.70;99.90;;;;;;4994876;28;20441;-84
2022/09/23 12:01:01;;;;;;;5.67;1.43;;;18.70;99.90;;;;;;4991179;28;20507;-84
2022/09/23 12:04:04;;;;;;;0.93;0.80;;;18.50;99.90;;;;;;4991278;28;20458;-84
2022/09/23 12:06:51;;;;;;;0.90;0.90;;;18.40;99.90;;;;;;4991711;28;20466;-86
2022/09/23 12:09:30;;;;;;;1.03;0.93;;;18.20;99.90;;;;;;4995438;28;20448;-84
2022/09/23 12:12:34;;;;;;;1.00;0.90;;;18.20;99.90;;;;;;4990409;28;20462;-82
2022/09/23 12:15:29;;;;;;;1.17;1.07;;;18.60;99.90;;;;;;4989899;28;20452;-82
2022/09/23 12:18:36;;;;;;;0.70;0.70;;;18.80;99.60;;;;;;4983590;28;20954;-84
2022/09/23 12:21:16;;;;;;;1.00;1.00;;;18.90;99.70;;;;;;4984747;28;20458;-85
2022/09/23 12:24:20;;;;;;;0.90;0.80;;;19.10;99.10;;;;;;4984378;28;20421;-85
2022/09/23 12:26:52;;;;;;;1.43;1.00;;;19.10;99.90;;;;;;4978295;28;20633;-85
2022/09/23 12:29:22;;;;;;;2.43;1.40;;;19.30;99.40;;;;;;4993447;28;20444;-86
2022/09/23 12:31:51;;;;;;;1.47;1.37;;;19.50;99.90;;;;;;4985812;28;20829;-84
2022/09/23 12:34:29;;;;;;;1.90;1.67;;;19.40;99.90;;;;;;4989858;28;20645;-85
2022/09/23 12:37:04;;;;;;;1.67;0.80;;;19.30;99.90;;;;;;4983167;28;20494;-84
2022/09/23 12:39:37;;;;;;;2.50;2.07;;;19.20;99.90;;;;;;4985548;28;20458;-84
2022/09/23 12:42:18;;;;;;;1.10;1.00;;;19.10;99.90;;;;;;4992683;28;20498;-84
2022/09/23 12:44:47;;;;;;;5.13;1.40;;;19.10;99.90;;;;;;4981257;28;20496;-84
2022/09/23 12:47:23;;;;;;;2.03;1.73;;;19.30;99.60;;;;;;4992787;28;20464;-86
2022/09/23 12:49:57;;;;;;;3.73;1.40;;;19.30;99.90;;;;;;4980660;28;20444;-87
2022/09/23 12:52:32;;;;;;;1.97;1.50;;;19.80;99.20;;;;;;4976009;28;20453;-86
2022/09/23 12:55:22;;;;;;;2.13;1.40;;;20.00;98.10;;;;;;4979462;28;20425;-85
2022/09/23 12:57:50;;;;;;;1.30;1.20;;;19.80;97.70;;;;;;4981935;28;20495;-85
2022/09/23 13:00:26;;;;;;;2.90;1.23;;;19.30;97.30;;;;;;4990049;28;20450;-85
2022/09/23 13:08:41;;;;;;;1.20;1.10;;;18.20;99.90;;;;;;4974179;28;20491;-84
2022/09/23 13:11:30;;;;;;;6.00;1.67;;;18.00;99.90;;;;;;4981212;28;20444;-86
2022/09/23 13:14:04;;;;;;;1.30;1.20;;;17.90;99.90;;;;;;4973971;28;20468;-83
2022/09/23 13:16:44;;;;;;;2.27;0.93;;;17.70;99.90;;;;;;4978623;28;21021;-85
2022/09/23 13:19:24;;;;;;;1.10;1.00;;;17.40;99.90;;;;;;4986801;28;20428;-86
2022/09/23 13:22:12;;;;;;;2.33;1.10;;;17.30;99.90;;;;;;4975537;28;20447;-84
2022/09/23 13:25:14;;;;;;;0.87;0.87;;;17.20;99.90;;;;;;4989079;28;20426;-86
2022/09/23 13:27:45;;;;;;;1.13;1.03;;;17.00;99.90;;;;;;4983052;28;20888;-85
2022/09/23 13:30:19;;;;;;;2.63;1.57;;;17.00;99.90;;;;;;4978058;28;20476;-86
2022/09/23 13:33:15;;;;;;;2.30;1.57;;;17.00;99.90;;;;;;4973721;28;20467;-86
2022/09/23 13:35:49;;;;;;;1.73;1.43;;;17.00;99.90;;;;;;4982067;28;20511;-86
2022/09/23 13:38:25;;;;;;;3.97;1.80;;;17.00;99.90;;;;;;4982882;28;20459;-85
2022/09/23 13:41:04;;;;;;;2.10;1.27;;;17.00;99.90;;;;;;4979653;28;20471;-86
2022/09/23 13:43:39;;;;;;;1.67;1.00;;;17.10;99.90;;;;;;4982714;28;20432;-86
2022/09/23 13:46:24;;;;;;;1.17;1.00;;;16.90;99.90;;;;;;4976390;28;20440;-86
2022/09/23 13:48:55;;;;;;;2.47;2.03;;;16.90;99.90;;;;;;4982053;28;20451;-85
2022/09/23 13:51:24;;;;;;;3.53;2.37;;;16.70;99.90;;;;;;4976963;28;20516;-84
2022/09/23 13:53:54;;;;;;;4.10;2.80;;;16.70;99.90;;;;;;4981082;28;20431;-85
2022/09/23 13:56:22;;;;;;;1.47;1.27;;;16.90;99.90;;;;;;4986359;28;20447;-86
2022/09/23 13:58:51;;;;;;;1.03;0.93;;;16.70;99.90;;;;;;4979545;28;20452;-88
2022/09/23 14:01:31;;;;;;;4.83;1.00;;;16.60;99.90;;;;;;4979745;28;20536;-85
2022/09/23 14:04:01;;;;;;;1.67;1.57;;;16.80;99.90;;;;;;4982012;28;20492;-86
2022/09/23 14:06:37;;;;;;;1.73;1.27;;;17.30;99.90;;;;;;4986900;28;20526;-85